sensor_id;sensor_type;location;lat;lon;timestamp;P1;durP1;ratioP1;P2;durP2;ratioP2
17259;SDS011;8746;49.230;9.220;2023-03-20T00:00:40;4.40;;;3.80;;
17259;SDS011;8746;49.230;9.220;2023-03-20T00:03:11;3.77;;;3.47;;
17259;SDS011;8746;49.230;9.220;2023-03-20T00:05:37;3.77;;;3.47;;
17259;SDS011;8746;49.230;9.220;2023-03-20T00:08:03;3.77;;;3.47;;
17259;SDS011;8746;49.230;9.220;2023-03-20T00:10:30;3.43;;;3.13;;
17259;SDS011;8746;49.230;9.220;2023-03-20T00:13:00;3.90;;;3.60;;
17259;SDS011;8746;49.230;9.220;2023-03-20T00:15:29;3.30;;;3.10;;
17259;SDS011;8746;49.230;9.220;2023-03-20T00:17:58;3.80;;;3.50;;
17259;SDS011;8746;49.230;9.220;2023-03-20T00:20:24;3.60;;;3.30;;
17259;SDS011;8746;49.230;9.220;2023-03-20T00:22:49;3.60;;;3.37;;
17259;SDS011;8746;49.230;9.220;2023-03-20T00:25:16;3.67;;;3.30;;
17259;SDS011;8746;49.230;9.220;2023-03-20T00:27:44;3.30;;;3.10;;
17259;SDS011;8746;49.230;9.220;2023-03-20T00:30:20;3.63;;;3.33;;
17259;SDS011;8746;49.230;9.220;2023-03-20T00:32:58;4.50;;;3.03;;
17259;SDS011;8746;49.230;9.220;2023-03-20T00:35:29;3.77;;;3.47;;
17259;SDS011;8746;49.230;9.220;2023-03-20T00:37:56;3.27;;;3.03;;
17259;SDS011;8746;49.230;9.220;2023-03-20T00:40:26;3.10;;;2.83;;
17259;SDS011;8746;49.230;9.220;2023-03-20T00:43:03;3.30;;;3.00;;
17259;SDS011;8746;49.230;9.220;2023-03-20T00:45:29;3.40;;;3.10;;
17259;SDS011;8746;49.230;9.220;2023-03-20T00:47:57;3.50;;;3.20;;
17259;SDS011;8746;49.230;9.220;2023-03-20T00:50:24;3.57;;;3.27;;
17259;SDS011;8746;49.230;9.220;2023-03-20T00:52:54;3.33;;;3.13;;
17259;SDS011;8746;49.230;9.220;2023-03-20T00:55:21;3.77;;;3.30;;
17259;SDS011;8746;49.230;9.220;2023-03-20T00:57:51;3.10;;;2.90;;
17259;SDS011;8746;49.230;9.220;2023-03-20T01:00:53;3.30;;;3.00;;
17259;SDS011;8746;49.230;9.220;2023-03-20T01:03:15;3.30;;;3.00;;
17259;SDS011;8746;49.230;9.220;2023-03-20T01:05:47;2.73;;;2.53;;
17259;SDS011;8746;49.230;9.220;2023-03-20T01:08:15;2.53;;;2.33;;
17259;SDS011;8746;49.230;9.220;2023-03-20T01:10:46;2.73;;;2.53;;
17259;SDS011;8746;49.230;9.220;2023-03-20T01:13:22;2.67;;;2.47;;
17259;SDS011;8746;49.230;9.220;2023-03-20T01:15:50;2.23;;;2.13;;
17259;SDS011;8746;49.230;9.220;2023-03-20T01:18:17;2.40;;;2.20;;
17259;SDS011;8746;49.230;9.220;2023-03-20T01:20:44;2.40;;;2.20;;
17259;SDS011;8746;49.230;9.220;2023-03-20T01:23:10;2.53;;;2.33;;
17259;SDS011;8746;49.230;9.220;2023-03-20T01:25:37;2.60;;;2.30;;
17259;SDS011;8746;49.230;9.220;2023-03-20T01:28:03;3.40;;;2.37;;
17259;SDS011;8746;49.230;9.220;2023-03-20T01:30:40;2.67;;;2.30;;
17259;SDS011;8746;49.230;9.220;2023-03-20T01:33:18;2.80;;;2.60;;
17259;SDS011;8746;49.230;9.220;2023-03-20T01:35:45;2.57;;;2.37;;
17259;SDS011;8746;49.230;9.220;2023-03-20T01:38:17;3.03;;;2.50;;
17259;SDS011;8746;49.230;9.220;2023-03-20T01:43:43;2.80;;;2.10;;
17259;SDS011;8746;49.230;9.220;2023-03-20T01:51:20;2.27;;;2.10;;
17259;SDS011;8746;49.230;9.220;2023-03-20T01:56:25;2.20;;;2.00;;
17259;SDS011;8746;49.230;9.220;2023-03-20T01:58:59;2.17;;;2.07;;
17259;SDS011;8746;49.230;9.220;2023-03-20T02:01:29;3.07;;;1.93;;
17259;SDS011;8746;49.230;9.220;2023-03-20T02:03:55;2.70;;;2.40;;
17259;SDS011;8746;49.230;9.220;2023-03-20T02:06:21;1.93;;;1.80;;
17259;SDS011;8746;49.230;9.220;2023-03-20T02:08:48;2.23;;;2.03;;
17259;SDS011;8746;49.230;9.220;2023-03-20T02:11:15;2.10;;;2.00;;
17259;SDS011;8746;49.230;9.220;2023-03-20T02:13:44;2.47;;;2.10;;
17259;SDS011;8746;49.230;9.220;2023-03-20T02:16:14;2.30;;;2.10;;
17259;SDS011;8746;49.230;9.220;2023-03-20T02:18:42;2.00;;;1.90;;
17259;SDS011;8746;49.230;9.220;2023-03-20T02:21:25;1.87;;;1.77;;
17259;SDS011;8746;49.230;9.220;2023-03-20T02:35:15;1.80;;;1.70;;
17259;SDS011;8746;49.230;9.220;2023-03-20T02:38:18;1.70;;;1.60;;
17259;SDS011;8746;49.230;9.220;2023-03-20T02:40:55;1.70;;;1.60;;
17259;SDS011;8746;49.230;9.220;2023-03-20T02:43:41;1.47;;;1.37;;
17259;SDS011;8746;49.230;9.220;2023-03-20T02:48:57;1.63;;;1.53;;
17259;SDS011;8746;49.230;9.220;2023-03-20T02:52:04;1.70;;;1.60;;
17259;SDS011;8746;49.230;9.220;2023-03-20T03:02:27;1.53;;;1.43;;
17259;SDS011;8746;49.230;9.220;2023-03-20T03:05:00;1.47;;;1.37;;
17259;SDS011;8746;49.230;9.220;2023-03-20T03:07:29;1.60;;;1.50;;
17259;SDS011;8746;49.230;9.220;2023-03-20T03:09:59;2.10;;;1.80;;
17259;SDS011;8746;49.230;9.220;2023-03-20T03:12:32;1.40;;;1.30;;
17259;SDS011;8746;49.230;9.220;2023-03-20T03:15:03;1.67;;;1.57;;
17259;SDS011;8746;49.230;9.220;2023-03-20T03:17:34;1.93;;;1.50;;
17259;SDS011;8746;49.230;9.220;2023-03-20T03:20:04;1.67;;;1.53;;
17259;SDS011;8746;49.230;9.220;2023-03-20T03:22:33;1.73;;;1.63;;
17259;SDS011;8746;49.230;9.220;2023-03-20T03:25:00;1.90;;;1.80;;
17259;SDS011;8746;49.230;9.220;2023-03-20T03:27:31;2.00;;;1.80;;
17259;SDS011;8746;49.230;9.220;2023-03-20T03:30:02;1.90;;;1.70;;
17259;SDS011;8746;49.230;9.220;2023-03-20T03:32:33;2.00;;;1.90;;
17259;SDS011;8746;49.230;9.220;2023-03-20T03:35:01;2.00;;;1.90;;
17259;SDS011;8746;49.230;9.220;2023-03-20T03:40:20;1.87;;;1.77;;
17259;SDS011;8746;49.230;9.220;2023-03-20T03:42:51;2.53;;;2.27;;
17259;SDS011;8746;49.230;9.220;2023-03-20T03:45:34;3.30;;;2.00;;
17259;SDS011;8746;49.230;9.220;2023-03-20T03:48:11;2.27;;;2.00;;
17259;SDS011;8746;49.230;9.220;2023-03-20T03:50:55;2.70;;;2.10;;
17259;SDS011;8746;49.230;9.220;2023-03-20T03:53:27;2.97;;;2.27;;
17259;SDS011;8746;49.230;9.220;2023-03-20T03:56:00;2.50;;;2.30;;
17259;SDS011;8746;49.230;9.220;2023-03-20T03:58:29;2.57;;;2.37;;
17259;SDS011;8746;49.230;9.220;2023-03-20T04:00:57;2.60;;;2.40;;
17259;SDS011;8746;49.230;9.220;2023-03-20T04:03:28;2.47;;;2.20;;
17259;SDS011;8746;49.230;9.220;2023-03-20T04:06:02;2.87;;;2.50;;
17259;SDS011;8746;49.230;9.220;2023-03-20T04:08:30;3.13;;;2.83;;
17259;SDS011;8746;49.230;9.220;2023-03-20T04:10:55;2.77;;;2.50;;
17259;SDS011;8746;49.230;9.220;2023-03-20T04:13:21;2.97;;;2.67;;
17259;SDS011;8746;49.230;9.220;2023-03-20T04:15:46;3.37;;;2.67;;
17259;SDS011;8746;49.230;9.220;2023-03-20T04:18:15;2.50;;;2.30;;
17259;SDS011;8746;49.230;9.220;2023-03-20T04:20:42;3.63;;;2.70;;
17259;SDS011;8746;49.230;9.220;2023-03-20T04:23:08;3.80;;;2.73;;
17259;SDS011;8746;49.230;9.220;2023-03-20T04:25:33;3.93;;;2.60;;
17259;SDS011;8746;49.230;9.220;2023-03-20T04:27:59;3.03;;;2.80;;
17259;SDS011;8746;49.230;9.220;2023-03-20T04:30:25;3.30;;;3.00;;
17259;SDS011;8746;49.230;9.220;2023-03-20T04:32:51;4.00;;;3.17;;
17259;SDS011;8746;49.230;9.220;2023-03-20T04:35:16;3.83;;;3.20;;
17259;SDS011;8746;49.230;9.220;2023-03-20T04:37:41;3.50;;;3.10;;
17259;SDS011;8746;49.230;9.220;2023-03-20T04:40:07;4.97;;;3.80;;
17259;SDS011;8746;49.230;9.220;2023-03-20T04:42:33;2.80;;;2.60;;
17259;SDS011;8746;49.230;9.220;2023-03-20T04:44:58;3.03;;;2.73;;
17259;SDS011;8746;49.230;9.220;2023-03-20T04:47:24;3.10;;;2.80;;
17259;SDS011;8746;49.230;9.220;2023-03-20T04:49:49;3.20;;;2.80;;
17259;SDS011;8746;49.230;9.220;2023-03-20T04:52:15;3.10;;;2.77;;
17259;SDS011;8746;49.230;9.220;2023-03-20T04:54:40;3.50;;;3.20;;
17259;SDS011;8746;49.230;9.220;2023-03-20T04:57:06;3.37;;;3.07;;
17259;SDS011;8746;49.230;9.220;2023-03-20T04:59:31;3.90;;;3.17;;
17259;SDS011;8746;49.230;9.220;2023-03-20T05:01:56;3.60;;;3.20;;
17259;SDS011;8746;49.230;9.220;2023-03-20T05:04:22;4.17;;;3.20;;
17259;SDS011;8746;49.230;9.220;2023-03-20T05:06:47;4.00;;;3.63;;
17259;SDS011;8746;49.230;9.220;2023-03-20T05:09:14;5.87;;;3.20;;
17259;SDS011;8746;49.230;9.220;2023-03-20T05:11:40;6.17;;;4.07;;
17259;SDS011;8746;49.230;9.220;2023-03-20T05:14:06;4.27;;;3.87;;
17259;SDS011;8746;49.230;9.220;2023-03-20T05:16:32;4.27;;;3.83;;
17259;SDS011;8746;49.230;9.220;2023-03-20T05:18:58;5.93;;;4.50;;
17259;SDS011;8746;49.230;9.220;2023-03-20T05:21:23;5.43;;;4.93;;
17259;SDS011;8746;49.230;9.220;2023-03-20T05:23:48;6.77;;;5.30;;
17259;SDS011;8746;49.230;9.220;2023-03-20T05:26:14;5.40;;;4.90;;
17259;SDS011;8746;49.230;9.220;2023-03-20T05:28:39;5.90;;;5.30;;
17259;SDS011;8746;49.230;9.220;2023-03-20T05:31:05;6.13;;;5.27;;
17259;SDS011;8746;49.230;9.220;2023-03-20T05:33:30;6.23;;;5.60;;
17259;SDS011;8746;49.230;9.220;2023-03-20T05:35:56;5.93;;;5.37;;
17259;SDS011;8746;49.230;9.220;2023-03-20T05:38:21;5.93;;;5.13;;
17259;SDS011;8746;49.230;9.220;2023-03-20T05:40:47;6.47;;;5.43;;
17259;SDS011;8746;49.230;9.220;2023-03-20T05:43:13;6.90;;;5.83;;
17259;SDS011;8746;49.230;9.220;2023-03-20T05:45:40;8.20;;;7.13;;
17259;SDS011;8746;49.230;9.220;2023-03-20T05:48:06;6.80;;;6.10;;
17259;SDS011;8746;49.230;9.220;2023-03-20T05:50:31;8.93;;;6.63;;
17259;SDS011;8746;49.230;9.220;2023-03-20T05:52:57;7.20;;;6.50;;
17259;SDS011;8746;49.230;9.220;2023-03-20T05:55:22;8.40;;;7.40;;
17259;SDS011;8746;49.230;9.220;2023-03-20T05:57:47;8.70;;;7.53;;
17259;SDS011;8746;49.230;9.220;2023-03-20T06:00:13;8.47;;;7.53;;
17259;SDS011;8746;49.230;9.220;2023-03-20T06:02:39;10.53;;;7.87;;
17259;SDS011;8746;49.230;9.220;2023-03-20T06:05:05;8.73;;;7.83;;
17259;SDS011;8746;49.230;9.220;2023-03-20T06:07:30;8.67;;;7.70;;
17259;SDS011;8746;49.230;9.220;2023-03-20T06:09:56;10.73;;;8.00;;
17259;SDS011;8746;49.230;9.220;2023-03-20T06:12:21;10.60;;;8.13;;
17259;SDS011;8746;49.230;9.220;2023-03-20T06:14:47;9.67;;;8.10;;
17259;SDS011;8746;49.230;9.220;2023-03-20T06:17:12;9.37;;;8.37;;
17259;SDS011;8746;49.230;9.220;2023-03-20T06:19:37;8.97;;;8.07;;
17259;SDS011;8746;49.230;9.220;2023-03-20T06:22:03;8.83;;;7.93;;
17259;SDS011;8746;49.230;9.220;2023-03-20T06:24:28;9.20;;;8.10;;
17259;SDS011;8746;49.230;9.220;2023-03-20T06:26:55;10.23;;;8.73;;
17259;SDS011;8746;49.230;9.220;2023-03-20T06:29:20;10.30;;;8.47;;
17259;SDS011;8746;49.230;9.220;2023-03-20T06:31:46;11.67;;;8.70;;
17259;SDS011;8746;49.230;9.220;2023-03-20T06:34:11;8.80;;;7.87;;
17259;SDS011;8746;49.230;9.220;2023-03-20T06:36:36;9.10;;;7.93;;
17259;SDS011;8746;49.230;9.220;2023-03-20T06:39:02;8.97;;;7.83;;
17259;SDS011;8746;49.230;9.220;2023-03-20T06:41:28;9.57;;;7.70;;
17259;SDS011;8746;49.230;9.220;2023-03-20T06:43:53;8.73;;;7.23;;
17259;SDS011;8746;49.230;9.220;2023-03-20T06:46:20;9.10;;;7.60;;
17259;SDS011;8746;49.230;9.220;2023-03-20T06:48:45;8.90;;;7.43;;
17259;SDS011;8746;49.230;9.220;2023-03-20T06:51:12;7.97;;;7.17;;
17259;SDS011;8746;49.230;9.220;2023-03-20T06:53:37;8.10;;;7.27;;
17259;SDS011;8746;49.230;9.220;2023-03-20T06:56:05;8.07;;;6.77;;
17259;SDS011;8746;49.230;9.220;2023-03-20T06:58:31;7.47;;;6.70;;
17259;SDS011;8746;49.230;9.220;2023-03-20T07:00:57;8.17;;;7.30;;
17259;SDS011;8746;49.230;9.220;2023-03-20T07:03:22;7.97;;;7.17;;
17259;SDS011;8746;49.230;9.220;2023-03-20T07:05:47;7.70;;;6.90;;
17259;SDS011;8746;49.230;9.220;2023-03-20T07:08:13;8.27;;;7.40;;
17259;SDS011;8746;49.230;9.220;2023-03-20T07:10:39;7.63;;;6.83;;
17259;SDS011;8746;49.230;9.220;2023-03-20T07:13:04;7.50;;;6.80;;
17259;SDS011;8746;49.230;9.220;2023-03-20T07:15:30;7.07;;;6.33;;
17259;SDS011;8746;49.230;9.220;2023-03-20T07:17:56;7.40;;;6.57;;
17259;SDS011;8746;49.230;9.220;2023-03-20T07:20:22;7.93;;;6.90;;
17259;SDS011;8746;49.230;9.220;2023-03-20T07:22:47;7.27;;;6.57;;
17259;SDS011;8746;49.230;9.220;2023-03-20T07:25:13;7.03;;;6.33;;
17259;SDS011;8746;49.230;9.220;2023-03-20T07:27:39;7.40;;;6.20;;
17259;SDS011;8746;49.230;9.220;2023-03-20T07:30:05;7.57;;;6.53;;
17259;SDS011;8746;49.230;9.220;2023-03-20T07:32:31;7.50;;;6.63;;
17259;SDS011;8746;49.230;9.220;2023-03-20T07:34:56;9.03;;;6.90;;
17259;SDS011;8746;49.230;9.220;2023-03-20T07:39:57;8.83;;;6.67;;
17259;SDS011;8746;49.230;9.220;2023-03-20T07:42:23;7.17;;;6.20;;
17259;SDS011;8746;49.230;9.220;2023-03-20T07:44:48;8.07;;;6.13;;
17259;SDS011;8746;49.230;9.220;2023-03-20T07:47:13;8.10;;;6.60;;
17259;SDS011;8746;49.230;9.220;2023-03-20T07:49:38;7.63;;;6.40;;
17259;SDS011;8746;49.230;9.220;2023-03-20T07:52:05;6.90;;;6.20;;
17259;SDS011;8746;49.230;9.220;2023-03-20T07:54:30;7.17;;;6.37;;
17259;SDS011;8746;49.230;9.220;2023-03-20T07:56:56;7.50;;;6.23;;
17259;SDS011;8746;49.230;9.220;2023-03-20T07:59:21;7.60;;;6.80;;
17259;SDS011;8746;49.230;9.220;2023-03-20T08:01:47;9.97;;;7.07;;
17259;SDS011;8746;49.230;9.220;2023-03-20T08:04:12;9.30;;;7.07;;
17259;SDS011;8746;49.230;9.220;2023-03-20T08:06:37;10.50;;;8.00;;
17259;SDS011;8746;49.230;9.220;2023-03-20T08:09:03;9.67;;;7.90;;
17259;SDS011;8746;49.230;9.220;2023-03-20T08:11:29;10.23;;;8.03;;
17259;SDS011;8746;49.230;9.220;2023-03-20T08:13:54;10.00;;;7.90;;
17259;SDS011;8746;49.230;9.220;2023-03-20T08:16:20;10.20;;;7.63;;
17259;SDS011;8746;49.230;9.220;2023-03-20T08:18:45;9.83;;;7.83;;
17259;SDS011;8746;49.230;9.220;2023-03-20T08:21:10;9.27;;;8.37;;
17259;SDS011;8746;49.230;9.220;2023-03-20T08:23:36;11.43;;;8.80;;
17259;SDS011;8746;49.230;9.220;2023-03-20T08:26:01;9.83;;;8.57;;
17259;SDS011;8746;49.230;9.220;2023-03-20T08:28:26;9.50;;;8.47;;
17259;SDS011;8746;49.230;9.220;2023-03-20T08:30:52;10.53;;;8.37;;
17259;SDS011;8746;49.230;9.220;2023-03-20T08:33:17;9.40;;;7.90;;
17259;SDS011;8746;49.230;9.220;2023-03-20T08:35:43;9.37;;;8.07;;
17259;SDS011;8746;49.230;9.220;2023-03-20T08:38:18;10.60;;;8.43;;
17259;SDS011;8746;49.230;9.220;2023-03-20T08:40:44;11.00;;;9.10;;
17259;SDS011;8746;49.230;9.220;2023-03-20T08:43:09;10.63;;;9.00;;
17259;SDS011;8746;49.230;9.220;2023-03-20T08:45:34;12.00;;;9.73;;
17259;SDS011;8746;49.230;9.220;2023-03-20T08:48:00;9.87;;;8.20;;
17259;SDS011;8746;49.230;9.220;2023-03-20T08:50:25;9.93;;;8.63;;
17259;SDS011;8746;49.230;9.220;2023-03-20T08:52:51;10.60;;;9.47;;
17259;SDS011;8746;49.230;9.220;2023-03-20T08:55:16;10.10;;;8.90;;
17259;SDS011;8746;49.230;9.220;2023-03-20T08:57:43;12.77;;;8.90;;
17259;SDS011;8746;49.230;9.220;2023-03-20T09:00:11;10.70;;;8.97;;
17259;SDS011;8746;49.230;9.220;2023-03-20T09:02:38;11.03;;;9.17;;
17259;SDS011;8746;49.230;9.220;2023-03-20T09:05:04;9.70;;;8.33;;
17259;SDS011;8746;49.230;9.220;2023-03-20T09:07:30;10.70;;;8.90;;
17259;SDS011;8746;49.230;9.220;2023-03-20T09:09:55;10.73;;;8.87;;
17259;SDS011;8746;49.230;9.220;2023-03-20T09:12:21;10.57;;;9.47;;
17259;SDS011;8746;49.230;9.220;2023-03-20T09:14:46;9.70;;;8.37;;
17259;SDS011;8746;49.230;9.220;2023-03-20T09:17:11;11.80;;;8.97;;
17259;SDS011;8746;49.230;9.220;2023-03-20T09:19:37;9.50;;;8.47;;
17259;SDS011;8746;49.230;9.220;2023-03-20T09:22:04;10.13;;;8.37;;
17259;SDS011;8746;49.230;9.220;2023-03-20T09:24:30;8.80;;;7.87;;
17259;SDS011;8746;49.230;9.220;2023-03-20T09:26:56;10.87;;;9.23;;
17259;SDS011;8746;49.230;9.220;2023-03-20T09:29:22;11.17;;;9.23;;
17259;SDS011;8746;49.230;9.220;2023-03-20T09:31:47;10.43;;;8.23;;
17259;SDS011;8746;49.230;9.220;2023-03-20T09:34:13;10.50;;;9.07;;
17259;SDS011;8746;49.230;9.220;2023-03-20T09:36:38;10.23;;;9.13;;
17259;SDS011;8746;49.230;9.220;2023-03-20T09:39:04;10.70;;;9.37;;
17259;SDS011;8746;49.230;9.220;2023-03-20T09:41:29;11.93;;;9.70;;
17259;SDS011;8746;49.230;9.220;2023-03-20T09:52:55;11.87;;;9.50;;
17259;SDS011;8746;49.230;9.220;2023-03-20T09:55:29;11.97;;;9.57;;
17259;SDS011;8746;49.230;9.220;2023-03-20T09:57:59;12.67;;;9.33;;
17259;SDS011;8746;49.230;9.220;2023-03-20T10:00:30;10.43;;;8.87;;
17259;SDS011;8746;49.230;9.220;2023-03-20T10:02:59;11.03;;;8.97;;
17259;SDS011;8746;49.230;9.220;2023-03-20T10:07:53;12.67;;;9.20;;
17259;SDS011;8746;49.230;9.220;2023-03-20T10:10:33;11.90;;;9.13;;
17259;SDS011;8746;49.230;9.220;2023-03-20T10:16:16;11.13;;;8.90;;
17259;SDS011;8746;49.230;9.220;2023-03-20T10:21:46;11.87;;;9.67;;
17259;SDS011;8746;49.230;9.220;2023-03-20T10:24:18;9.47;;;8.47;;
17259;SDS011;8746;49.230;9.220;2023-03-20T10:26:50;10.40;;;8.60;;
17259;SDS011;8746;49.230;9.220;2023-03-20T10:34:43;10.17;;;8.53;;
17259;SDS011;8746;49.230;9.220;2023-03-20T10:40:13;10.97;;;9.10;;
17259;SDS011;8746;49.230;9.220;2023-03-20T10:42:42;12.63;;;10.23;;
17259;SDS011;8746;49.230;9.220;2023-03-20T10:47:42;10.40;;;9.23;;
17259;SDS011;8746;49.230;9.220;2023-03-20T10:50:14;10.30;;;9.20;;
17259;SDS011;8746;49.230;9.220;2023-03-20T10:52:42;12.00;;;10.17;;
17259;SDS011;8746;49.230;9.220;2023-03-20T10:55:10;10.40;;;9.10;;
17259;SDS011;8746;49.230;9.220;2023-03-20T10:57:41;10.20;;;9.20;;
17259;SDS011;8746;49.230;9.220;2023-03-20T11:00:13;11.73;;;10.53;;
17259;SDS011;8746;49.230;9.220;2023-03-20T11:02:43;14.03;;;10.60;;
17259;SDS011;8746;49.230;9.220;2023-03-20T11:05:18;14.00;;;11.17;;
17259;SDS011;8746;49.230;9.220;2023-03-20T11:07:46;12.47;;;11.13;;
17259;SDS011;8746;49.230;9.220;2023-03-20T11:10:18;11.73;;;10.33;;
17259;SDS011;8746;49.230;9.220;2023-03-20T11:12:44;10.30;;;9.30;;
17259;SDS011;8746;49.230;9.220;2023-03-20T11:15:14;10.50;;;9.50;;
17259;SDS011;8746;49.230;9.220;2023-03-20T11:17:57;10.23;;;9.23;;
17259;SDS011;8746;49.230;9.220;2023-03-20T11:20:36;10.43;;;9.33;;
17259;SDS011;8746;49.230;9.220;2023-03-20T11:23:04;9.30;;;8.33;;
17259;SDS011;8746;49.230;9.220;2023-03-20T11:25:38;8.70;;;7.80;;
17259;SDS011;8746;49.230;9.220;2023-03-20T11:28:26;8.60;;;7.67;;
17259;SDS011;8746;49.230;9.220;2023-03-20T11:30:59;9.17;;;8.27;;
17259;SDS011;8746;49.230;9.220;2023-03-20T11:33:27;8.00;;;7.20;;
17259;SDS011;8746;49.230;9.220;2023-03-20T11:35:54;7.80;;;7.07;;
17259;SDS011;8746;49.230;9.220;2023-03-20T11:38:20;7.63;;;6.87;;
17259;SDS011;8746;49.230;9.220;2023-03-20T11:40:46;7.87;;;7.07;;
17259;SDS011;8746;49.230;9.220;2023-03-20T11:43:16;8.77;;;7.87;;
17259;SDS011;8746;49.230;9.220;2023-03-20T11:45:47;7.80;;;7.00;;
17259;SDS011;8746;49.230;9.220;2023-03-20T11:48:16;7.47;;;6.77;;
17259;SDS011;8746;49.230;9.220;2023-03-20T11:50:48;6.63;;;5.80;;
17259;SDS011;8746;49.230;9.220;2023-03-20T12:01:52;5.87;;;5.27;;
17259;SDS011;8746;49.230;9.220;2023-03-20T12:04:26;7.20;;;5.10;;
17259;SDS011;8746;49.230;9.220;2023-03-20T12:07:00;6.03;;;4.93;;
17259;SDS011;8746;49.230;9.220;2023-03-20T12:09:30;5.83;;;5.17;;
17259;SDS011;8746;49.230;9.220;2023-03-20T12:12:11;5.10;;;4.60;;
17259;SDS011;8746;49.230;9.220;2023-03-20T12:17:49;4.70;;;4.27;;
17259;SDS011;8746;49.230;9.220;2023-03-20T12:25:36;4.50;;;3.60;;
17259;SDS011;8746;49.230;9.220;2023-03-20T12:31:03;5.37;;;3.30;;
17259;SDS011;8746;49.230;9.220;2023-03-20T12:36:12;4.00;;;3.03;;
17259;SDS011;8746;49.230;9.220;2023-03-20T12:38:47;3.50;;;2.97;;
17259;SDS011;8746;49.230;9.220;2023-03-20T12:41:18;4.00;;;3.33;;
17259;SDS011;8746;49.230;9.220;2023-03-20T12:44:11;2.90;;;2.43;;
17259;SDS011;8746;49.230;9.220;2023-03-20T12:46:49;5.20;;;3.00;;
17259;SDS011;8746;49.230;9.220;2023-03-20T13:01:21;3.73;;;3.43;;
17259;SDS011;8746;49.230;9.220;2023-03-20T13:09:40;3.17;;;2.87;;
17259;SDS011;8746;49.230;9.220;2023-03-20T13:20:49;3.90;;;3.50;;
17259;SDS011;8746;49.230;9.220;2023-03-20T13:31:35;3.37;;;3.07;;
17259;SDS011;8746;49.230;9.220;2023-03-20T13:39:47;3.00;;;2.70;;
17259;SDS011;8746;49.230;9.220;2023-03-20T13:42:22;3.17;;;2.87;;
17259;SDS011;8746;49.230;9.220;2023-03-20T13:45:02;3.10;;;2.80;;
17259;SDS011;8746;49.230;9.220;2023-03-20T13:47:31;5.43;;;2.80;;
17259;SDS011;8746;49.230;9.220;2023-03-20T14:01:41;3.83;;;2.73;;
17259;SDS011;8746;49.230;9.220;2023-03-20T14:04:17;2.70;;;2.50;;
17259;SDS011;8746;49.230;9.220;2023-03-20T14:06:53;3.63;;;2.60;;
17259;SDS011;8746;49.230;9.220;2023-03-20T14:09:24;2.90;;;2.60;;
17259;SDS011;8746;49.230;9.220;2023-03-20T14:11:51;2.83;;;2.53;;
17259;SDS011;8746;49.230;9.220;2023-03-20T14:15:02;2.80;;;2.60;;
17259;SDS011;8746;49.230;9.220;2023-03-20T14:17:23;3.17;;;2.30;;
17259;SDS011;8746;49.230;9.220;2023-03-20T14:19:51;2.40;;;2.20;;
17259;SDS011;8746;49.230;9.220;2023-03-20T14:22:38;2.50;;;2.30;;
17259;SDS011;8746;49.230;9.220;2023-03-20T14:25:05;4.53;;;2.50;;
17259;SDS011;8746;49.230;9.220;2023-03-20T14:27:57;2.80;;;2.60;;
17259;SDS011;8746;49.230;9.220;2023-03-20T14:35:26;5.53;;;3.60;;
17259;SDS011;8746;49.230;9.220;2023-03-20T14:40:23;2.90;;;2.70;;
17259;SDS011;8746;49.230;9.220;2023-03-20T14:42:56;3.10;;;2.80;;
17259;SDS011;8746;49.230;9.220;2023-03-20T14:47:59;3.10;;;2.80;;
17259;SDS011;8746;49.230;9.220;2023-03-20T14:53:15;3.00;;;2.80;;
17259;SDS011;8746;49.230;9.220;2023-03-20T15:00:59;3.47;;;2.87;;
17259;SDS011;8746;49.230;9.220;2023-03-20T15:03:30;4.13;;;3.20;;
17259;SDS011;8746;49.230;9.220;2023-03-20T15:05:58;5.13;;;3.77;;
17259;SDS011;8746;49.230;9.220;2023-03-20T15:08:28;3.87;;;3.00;;
17259;SDS011;8746;49.230;9.220;2023-03-20T15:10:58;4.00;;;3.60;;
17259;SDS011;8746;49.230;9.220;2023-03-20T15:13:30;2.80;;;2.60;;
17259;SDS011;8746;49.230;9.220;2023-03-20T15:15:59;2.83;;;2.57;;
17259;SDS011;8746;49.230;9.220;2023-03-20T15:18:36;3.30;;;2.90;;
17259;SDS011;8746;49.230;9.220;2023-03-20T15:21:17;4.47;;;2.87;;
17259;SDS011;8746;49.230;9.220;2023-03-20T15:23:45;3.00;;;2.60;;
17259;SDS011;8746;49.230;9.220;2023-03-20T15:26:15;2.60;;;2.40;;
17259;SDS011;8746;49.230;9.220;2023-03-20T15:28:42;3.10;;;2.10;;
17259;SDS011;8746;49.230;9.220;2023-03-20T15:31:23;2.40;;;2.20;;
17259;SDS011;8746;49.230;9.220;2023-03-20T15:33:51;4.07;;;2.50;;
17259;SDS011;8746;49.230;9.220;2023-03-20T15:36:17;2.30;;;2.10;;
17259;SDS011;8746;49.230;9.220;2023-03-20T15:38:46;3.73;;;2.27;;
17259;SDS011;8746;49.230;9.220;2023-03-20T15:42:14;3.10;;;2.30;;
17259;SDS011;8746;49.230;9.220;2023-03-20T15:46:40;2.33;;;2.13;;
17259;SDS011;8746;49.230;9.220;2023-03-20T15:49:18;2.87;;;2.43;;
17259;SDS011;8746;49.230;9.220;2023-03-20T15:51:45;2.57;;;2.37;;
17259;SDS011;8746;49.230;9.220;2023-03-20T15:54:14;2.90;;;2.63;;
17259;SDS011;8746;49.230;9.220;2023-03-20T15:56:42;3.23;;;2.77;;
17259;SDS011;8746;49.230;9.220;2023-03-20T15:59:12;5.00;;;2.90;;
17259;SDS011;8746;49.230;9.220;2023-03-20T16:01:40;6.70;;;2.70;;
17259;SDS011;8746;49.230;9.220;2023-03-20T16:04:05;4.00;;;2.17;;
17259;SDS011;8746;49.230;9.220;2023-03-20T16:06:34;3.70;;;2.60;;
17259;SDS011;8746;49.230;9.220;2023-03-20T16:09:00;2.73;;;2.53;;
17259;SDS011;8746;49.230;9.220;2023-03-20T16:11:37;4.67;;;2.57;;
17259;SDS011;8746;49.230;9.220;2023-03-20T16:14:04;3.07;;;2.03;;
17259;SDS011;8746;49.230;9.220;2023-03-20T16:16:31;2.07;;;1.93;;
17259;SDS011;8746;49.230;9.220;2023-03-20T16:19:02;3.80;;;2.30;;
17259;SDS011;8746;49.230;9.220;2023-03-20T16:21:32;2.30;;;2.07;;
17259;SDS011;8746;49.230;9.220;2023-03-20T16:24:03;2.33;;;2.13;;
17259;SDS011;8746;49.230;9.220;2023-03-20T16:26:34;4.43;;;2.13;;
17259;SDS011;8746;49.230;9.220;2023-03-20T16:29:01;2.27;;;2.07;;
17259;SDS011;8746;49.230;9.220;2023-03-20T16:33:56;3.57;;;2.40;;
17259;SDS011;8746;49.230;9.220;2023-03-20T16:36:33;3.23;;;2.17;;
17259;SDS011;8746;49.230;9.220;2023-03-20T16:39:05;2.33;;;2.00;;
17259;SDS011;8746;49.230;9.220;2023-03-20T16:41:31;2.60;;;2.10;;
17259;SDS011;8746;49.230;9.220;2023-03-20T16:44:20;3.90;;;2.47;;
17259;SDS011;8746;49.230;9.220;2023-03-20T16:46:52;3.37;;;2.30;;
17259;SDS011;8746;49.230;9.220;2023-03-20T16:52:09;2.70;;;2.43;;
17259;SDS011;8746;49.230;9.220;2023-03-20T16:54:38;2.40;;;2.20;;
17259;SDS011;8746;49.230;9.220;2023-03-20T16:57:08;2.70;;;2.50;;
17259;SDS011;8746;49.230;9.220;2023-03-20T16:59:38;2.60;;;2.10;;
17259;SDS011;8746;49.230;9.220;2023-03-20T17:02:10;3.27;;;1.93;;
17259;SDS011;8746;49.230;9.220;2023-03-20T17:04:38;2.77;;;1.90;;
17259;SDS011;8746;49.230;9.220;2023-03-20T17:12:39;2.47;;;2.20;;
17259;SDS011;8746;49.230;9.220;2023-03-20T17:15:06;2.80;;;2.27;;
17259;SDS011;8746;49.230;9.220;2023-03-20T17:17:31;3.83;;;2.07;;
17259;SDS011;8746;49.230;9.220;2023-03-20T17:19:58;2.30;;;2.03;;
17259;SDS011;8746;49.230;9.220;2023-03-20T17:22:25;2.90;;;2.07;;
17259;SDS011;8746;49.230;9.220;2023-03-20T17:24:52;3.03;;;2.00;;
17259;SDS011;8746;49.230;9.220;2023-03-20T17:27:18;2.33;;;2.13;;
17259;SDS011;8746;49.230;9.220;2023-03-20T17:29:44;2.53;;;2.00;;
17259;SDS011;8746;49.230;9.220;2023-03-20T17:32:14;2.83;;;2.40;;
17259;SDS011;8746;49.230;9.220;2023-03-20T17:34:41;4.67;;;2.47;;
17259;SDS011;8746;49.230;9.220;2023-03-20T17:37:10;4.00;;;2.90;;
17259;SDS011;8746;49.230;9.220;2023-03-20T17:39:37;3.27;;;2.50;;
17259;SDS011;8746;49.230;9.220;2023-03-20T17:42:04;2.93;;;2.50;;
17259;SDS011;8746;49.230;9.220;2023-03-20T17:44:40;3.40;;;2.57;;
17259;SDS011;8746;49.230;9.220;2023-03-20T17:47:07;2.60;;;2.30;;
17259;SDS011;8746;49.230;9.220;2023-03-20T17:49:39;2.77;;;2.13;;
17259;SDS011;8746;49.230;9.220;2023-03-20T17:52:05;4.40;;;2.17;;
17259;SDS011;8746;49.230;9.220;2023-03-20T17:54:37;3.87;;;2.50;;
17259;SDS011;8746;49.230;9.220;2023-03-20T17:57:02;2.50;;;2.30;;
17259;SDS011;8746;49.230;9.220;2023-03-20T17:59:28;3.50;;;2.20;;
17259;SDS011;8746;49.230;9.220;2023-03-20T18:01:55;2.73;;;2.40;;